Dilworth, Texas
Current Conditions -  °F | °C
As of 11:55 PM on Saturday 25 Oct 2014 (Local Time) from KT20 Reporting Station
Clear Clear  
Wind Chill: 67°   Ceiling: Unl
Heat Index: 67°   Visibility: 10mi
Dew Point: 61°   Wind: 6mph
Humidity: 80%   Direction: 180°S
Pressure: 30.1"   Gusts: NA
Location:  29.481°N, 97.4305°W
Report Text: KT20 260455Z AUTO 18005KT 10SM CLR 20/16 A3010 RMK AO2 T01960160
Loading
Personal Weather Stations






























Interactive Weather Map
Tropical Storm Tracking
New forecast layout! Learn more

10-Day Weather Forecast

Advertisements
Track Severe Weather on mobile